Featured Flight

MET1453 - Detroit to Chicago

Boeing 737-200
711MT
0 hrs 40 mins
199 nm
Scheduled - Daily

Bid/PiRep Status

Bid was submitted on December 27th, 2016 17:10 UTC.
PiRep # 74493: Approved by Dave Nichols on December 30th, 2016 2:54 UTC

Departure

Departing from
Detroit (DTW)
Departure gate
Scheduled Departure
GMT 1950
Local 1550
METAR KDTW 232253Z 15006KT 10SM CLR 29/17 A3011 RMK AO2 SLP193 T02890167
TAF KDTW 232057Z 2321/2424 15004KT P6SM FEW120 FM240000 00000KT P6SM FEW250 FM240800 VRB03KT 4SM BR FEW120 FM241300 13005KT P6SM SCT250

Route Map

Planning Resources

DTW JXN LFD GSH CGT MDW
JXN V116 LEROY GSH
CRL.BENJO.GIJ.
CRL-BENJO-GIJ
PALACE3 LEROY GSH GSH3
Route:
OFP Layout:
Units:
Detailed Navlog:
ETOPS Planning:
Plan Stepclimbs:
Runway Analysis:
Include NOTAMS:
FIR NOTAMS:
Flight Maps:

Popularity

Hub Current Bids PiReps this month Total PiReps
KMCI 0 0 1
KLAX 0 0 1
KBOS 0 0 0